GMBLR11 KNUC-KNZY
Flight info
| Callsign | GMBLR11 |
|---|---|
| Flight time | N/A |
| Altitude | 5500 |
| Route | VFR FF |
| Aircraft | H60/L-VD/C |
Departure
| Time | 2026-04-24 01:43 |
|---|---|
| Airport | San Clemente Island Naval Auxiliary Landing Field (KNUC) |
Arrival
| Time | N/A |
|---|---|
| Airport | North Island Naval Air Station-Halsey Field (KNZY) |
| Time | Latitude | Longitude | Altitude | Speed | Heading |
|---|---|---|---|---|---|
| 2026-04-24 01:29 | 33.02042 | -118.58486 | 116 ft | 0 kts | 337° |
| 2026-04-24 01:39 | 33.02053 | -118.58491 | 113 ft | 3 kts | 347° |
| 2026-04-24 01:39 | 33.02073 | -118.58466 | 114 ft | 4 kts | 58° |
| 2026-04-24 01:39 | 33.02104 | -118.58468 | 115 ft | 5 kts | 336° |
| 2026-04-24 01:39 | 33.02152 | -118.58494 | 116 ft | 9 kts | 335° |
| 2026-04-24 01:40 | 33.02206 | -118.58521 | 115 ft | 7 kts | 349° |
| 2026-04-24 01:40 | 33.02238 | -118.58511 | 115 ft | 4 kts | 40° |
| 2026-04-24 01:40 | 33.02251 | -118.58486 | 115 ft | 5 kts | 67° |
| 2026-04-24 01:40 | 33.02268 | -118.58440 | 115 ft | 8 kts | 66° |
| 2026-04-24 01:41 | 33.02291 | -118.58376 | 114 ft | 9 kts | 66° |
| 2026-04-24 01:41 | 33.02306 | -118.58334 | 114 ft | 3 kts | 65° |
| 2026-04-24 01:41 | 33.02307 | -118.58330 | 116 ft | 0 kts | 63° |
| 2026-04-24 01:41 | 33.02313 | -118.58317 | 114 ft | 5 kts | 65° |
| 2026-04-24 01:42 | 33.02321 | -118.58293 | 115 ft | 1 kts | 66° |
| 2026-04-24 01:42 | 33.02386 | -118.58109 | 232 ft | 63 kts | 67° |
| 2026-04-24 01:42 | 33.02670 | -118.57339 | 712 ft | 130 kts | 69° |
| 2026-04-24 01:43 | 33.02842 | -118.56160 | 1120 ft | 153 kts | 90° |
| 2026-04-24 01:43 | 33.02536 | -118.54932 | 1594 ft | 155 kts | 112° |
| 2026-04-24 01:43 | 33.02167 | -118.53739 | 2061 ft | 154 kts | 109° |
| 2026-04-24 01:43 | 33.01828 | -118.52542 | 2395 ft | 156 kts | 109° |
| 2026-04-24 01:44 | 33.01530 | -118.51300 | 2778 ft | 156 kts | 107° |
| 2026-04-24 01:44 | 33.01226 | -118.50059 | 3082 ft | 157 kts | 106° |
| 2026-04-24 01:44 | 33.00964 | -118.48805 | 3287 ft | 162 kts | 104° |
| 2026-04-24 01:44 | 33.00646 | -118.47465 | 3387 ft | 174 kts | 107° |
| 2026-04-24 01:45 | 33.00301 | -118.46061 | 3500 ft | 179 kts | 104° |
| 2026-04-24 01:45 | 32.99940 | -118.44609 | 3470 ft | 185 kts | 108° |
| 2026-04-24 01:45 | 32.99517 | -118.43191 | 3631 ft | 178 kts | 110° |
| 2026-04-24 01:45 | 32.99079 | -118.41837 | 3902 ft | 172 kts | 112° |
| 2026-04-24 01:46 | 32.98623 | -118.40520 | 4156 ft | 172 kts | 112° |
| 2026-04-24 01:46 | 32.98053 | -118.39258 | 4336 ft | 175 kts | 124° |
| 2026-04-24 01:46 | 32.97474 | -118.37986 | 4529 ft | 173 kts | 116° |
| 2026-04-24 01:46 | 32.96885 | -118.36770 | 4869 ft | 166 kts | 122° |
| 2026-04-24 01:47 | 32.96377 | -118.35571 | 5196 ft | 162 kts | 117° |
| 2026-04-24 01:47 | 32.95866 | -118.34380 | 5547 ft | 159 kts | 117° |
| 2026-04-24 01:47 | 32.95364 | -118.33193 | 5434 ft | 162 kts | 117° |
| 2026-04-24 01:47 | 32.94873 | -118.32003 | 5481 ft | 156 kts | 117° |
| 2026-04-24 01:48 | 32.94383 | -118.30830 | 5488 ft | 161 kts | 117° |
| 2026-04-24 01:48 | 32.93898 | -118.29610 | 5486 ft | 166 kts | 114° |
| 2026-04-24 01:48 | 32.93506 | -118.28308 | 5484 ft | 169 kts | 108° |
| 2026-04-24 01:48 | 32.93187 | -118.26949 | 5490 ft | 172 kts | 106° |
| 2026-04-24 01:49 | 32.92858 | -118.25567 | 5493 ft | 175 kts | 106° |